Iblea — IBFK — position and weather

sailwx.info

Track history (hours):
 
Tides and Currents Weather Stations Pressure Air Temp Water Temp Dewpoint Dewpoint Depression Visibility Wind Speed Wind Dir Waves Ship Positions

Iblea

Last reported at 2015-May-03 09:27 UTC. Time now 2015-May-03 09:48 UTC.
Position N 37°13' E 026°03'.

Length 176 m; draft 11.1 m.

Type: Ship (hazmat cat C). MMSI: 247087700.

Date/timePositionNaut miles runAvg speedWind from/ knotsBaromVisibWave heightAir tempDewpointWater temp
2015-May-03 09:27N 37°13' E 026°03'1212.6
2015-May-03 08:28N 37°24' E 025°56'1112.2
2015-May-03 07:34N 37°34' E 025°52'1212.0
2015-May-03 06:33N 37°46' E 025°48'  
2015-Apr-28 10:09N 37°54' E 024°33'2713.6
2015-Apr-28 08:10N 37°34' E 024°09'1314.0
2015-Apr-28 07:13N 37°23' E 024°00'1013.8
2015-Apr-28 06:32N 37°16' E 023°53'1313.5
2015-Apr-28 05:33N 37°07' E 023°41'1413.4
2015-Apr-28 04:33N 36°58' E 023°28'1212.2
2015-Apr-28 03:33N 36°46' E 023°29'1313.2
2015-Apr-28 02:33N 36°34' E 023°23'1413.8
2015-Apr-28 01:33N 36°23' E 023°13'28013.3
2015-Apr-27 04:31N 36°02' E 017°27'2013.7
2015-Apr-27 03:04N 36°00' E 017°02'1013.8
2015-Apr-27 02:22N 35°60' E 016°50'1313.8
2015-Apr-27 01:23N 35°59' E 016°34'1213.7
2015-Apr-27 00:32N 35°58' E 016°19'1313.6
2015-Apr-26 23:33N 35°57' E 016°03'1413.5
2015-Apr-26 22:33N 35°56' E 015°46'1413.6
2015-Apr-26 21:33N 35°55' E 015°29'1313.5
2015-Apr-26 20:33N 35°54' E 015°13'1613.6
2015-Apr-26 19:24N 35°53' E 014°54'6 7.0
2015-Apr-26 18:31N 35°53' E 014°46'0 0.0
2015-Apr-26 17:31N 35°53' E 014°46'0 0.0
2015-Apr-26 16:31N 35°53' E 014°46'0 0.0
2015-Apr-26 15:28N 35°53' E 014°46'0 0.0
2015-Apr-26 14:33N 35°53' E 014°46'0 0.0
2015-Apr-26 13:33N 35°53' E 014°46'0 0.0
2015-Apr-26 12:33N 35°53' E 014°46'0 0.0
2015-Apr-26 11:33N 35°53' E 014°46'0 0.0
2015-Apr-26 10:33N 35°53' E 014°46'0 0.0
2015-Apr-26 09:33N 35°53' E 014°46'0 0.0
2015-Apr-26 08:33N 35°52' E 014°46'7 6.8
2015-Apr-26 07:33N 35°49' E 014°39'5 0.2
2015-Apr-25 09:25N 35°49' E 014°33'2 2.2
2015-Apr-25 08:33N 35°48' E 014°35'5 5.3
2015-Apr-25 07:33N 35°48' E 014°41'1110.9
2015-Apr-25 06:33N 35°49' E 014°55'0 0.1
2015-Apr-25 03:23N 35°49' E 014°55'0 0.0
2015-Apr-25 02:29N 35°49' E 014°55'0 0.0
2015-Apr-25 01:29N 35°49' E 014°55'0 0.0
2015-Apr-25 00:14N 35°49' E 014°55'0 0.0
2015-Apr-24 23:32N 35°49' E 014°55'0 0.0
2015-Apr-24 21:17N 35°49' E 014°55'0 0.0
2015-Apr-24 19:17N 35°49' E 014°55'0 0.0
2015-Apr-24 18:26N 35°49' E 014°55'0 0.0
2015-Apr-24 17:29N 35°49' E 014°55'0 0.1
2015-Apr-24 16:26N 35°49' E 014°55'0 0.1
2015-Apr-24 15:29N 35°49' E 014°55'0 0.0
2015-Apr-24 14:32N 35°49' E 014°55'0 0.0
2015-Apr-24 12:23N 35°49' E 014°55'0 0.0
2015-Apr-24 11:11N 35°49' E 014°55'0 0.0
2015-Apr-24 10:32N 35°49' E 014°55'0 0.0
2015-Apr-24 09:14N 35°49' E 014°55'0 0.0
2015-Apr-24 08:32N 35°49' E 014°55'0 0.0
2015-Apr-24 07:08N 35°49' E 014°55'0 0.0
2015-Apr-24 06:28N 35°49' E 014°55'0 0.4
2015-Apr-24 05:32N 35°49' E 014°56'10 9.6
2015-Apr-24 04:31N 35°55' E 015°05'1412.8
2015-Apr-24 03:26N 36°07' E 015°14'1112.8
2015-Apr-24 02:33N 36°16' E 015°23'1413.2
2015-Apr-24 01:30N 36°27' E 015°33'1313.0
2015-Apr-24 00:32N 36°37' E 015°42'6513.0
2015-Apr-23 19:33N 37°31' E 016°29'1212.3
2015-Apr-23 18:33N 37°40' E 016°38'2412.1
2015-Apr-23 16:32N 38°01' E 016°55'8912.6
2015-Apr-23 09:27N 39°13' E 018°01'  
Track history (hours):
 
Tides and Currents Weather Stations Pressure Air Temp Water Temp Dewpoint Dewpoint Depression Visibility Wind Speed Wind Dir Waves Ship Positions

Iblea

Last reported at 2015-May-03 09:27 UTC. Time now 2015-May-03 09:48 UTC.
Position N 37°13' E 026°03'.

Length 176 m; draft 11.1 m.

Type: Ship (hazmat cat C). MMSI: 247087700.

Date/timePositionNaut miles runAvg speedWind from/ knotsBaromVisibWave heightAir tempDewpointWater temp
2015-May-03 09:27N 37°13' E 026°03'1212.6
2015-May-03 08:28N 37°24' E 025°56'1112.2
2015-May-03 07:34N 37°34' E 025°52'1212.0
2015-May-03 06:33N 37°46' E 025°48'  
2015-Apr-28 10:09N 37°54' E 024°33'2713.6
2015-Apr-28 08:10N 37°34' E 024°09'1314.0
2015-Apr-28 07:13N 37°23' E 024°00'1013.8
2015-Apr-28 06:32N 37°16' E 023°53'1313.5
2015-Apr-28 05:33N 37°07' E 023°41'1413.4
2015-Apr-28 04:33N 36°58' E 023°28'1212.2
2015-Apr-28 03:33N 36°46' E 023°29'1313.2
2015-Apr-28 02:33N 36°34' E 023°23'1413.8
2015-Apr-28 01:33N 36°23' E 023°13'28013.3
2015-Apr-27 04:31N 36°02' E 017°27'2013.7
2015-Apr-27 03:04N 36°00' E 017°02'1013.8
2015-Apr-27 02:22N 35°60' E 016°50'1313.8
2015-Apr-27 01:23N 35°59' E 016°34'1213.7
2015-Apr-27 00:32N 35°58' E 016°19'1313.6
2015-Apr-26 23:33N 35°57' E 016°03'1413.5
2015-Apr-26 22:33N 35°56' E 015°46'1413.6
2015-Apr-26 21:33N 35°55' E 015°29'1313.5
2015-Apr-26 20:33N 35°54' E 015°13'1613.6
2015-Apr-26 19:24N 35°53' E 014°54'6 7.0
2015-Apr-26 18:31N 35°53' E 014°46'0 0.0
2015-Apr-26 17:31N 35°53' E 014°46'0 0.0
2015-Apr-26 16:31N 35°53' E 014°46'0 0.0
2015-Apr-26 15:28N 35°53' E 014°46'0 0.0
2015-Apr-26 14:33N 35°53' E 014°46'0 0.0
2015-Apr-26 13:33N 35°53' E 014°46'0 0.0
2015-Apr-26 12:33N 35°53' E 014°46'0 0.0
2015-Apr-26 11:33N 35°53' E 014°46'0 0.0
2015-Apr-26 10:33N 35°53' E 014°46'0 0.0
2015-Apr-26 09:33N 35°53' E 014°46'0 0.0
2015-Apr-26 08:33N 35°52' E 014°46'7 6.8
2015-Apr-26 07:33N 35°49' E 014°39'5 0.2
2015-Apr-25 09:25N 35°49' E 014°33'2 2.2
2015-Apr-25 08:33N 35°48' E 014°35'5 5.3
2015-Apr-25 07:33N 35°48' E 014°41'1110.9
2015-Apr-25 06:33N 35°49' E 014°55'0 0.1
2015-Apr-25 03:23N 35°49' E 014°55'0 0.0
2015-Apr-25 02:29N 35°49' E 014°55'0 0.0
2015-Apr-25 01:29N 35°49' E 014°55'0 0.0
2015-Apr-25 00:14N 35°49' E 014°55'0 0.0
2015-Apr-24 23:32N 35°49' E 014°55'0 0.0
2015-Apr-24 21:17N 35°49' E 014°55'0 0.0
2015-Apr-24 19:17N 35°49' E 014°55'0 0.0
2015-Apr-24 18:26N 35°49' E 014°55'0 0.0
2015-Apr-24 17:29N 35°49' E 014°55'0 0.1
2015-Apr-24 16:26N 35°49' E 014°55'0 0.1
2015-Apr-24 15:29N 35°49' E 014°55'0 0.0
2015-Apr-24 14:32N 35°49' E 014°55'0 0.0
2015-Apr-24 12:23N 35°49' E 014°55'0 0.0
2015-Apr-24 11:11N 35°49' E 014°55'0 0.0
2015-Apr-24 10:32N 35°49' E 014°55'0 0.0
2015-Apr-24 09:14N 35°49' E 014°55'0 0.0
2015-Apr-24 08:32N 35°49' E 014°55'0 0.0
2015-Apr-24 07:08N 35°49' E 014°55'0 0.0
2015-Apr-24 06:28N 35°49' E 014°55'0 0.4
2015-Apr-24 05:32N 35°49' E 014°56'10 9.6
2015-Apr-24 04:31N 35°55' E 015°05'1412.8
2015-Apr-24 03:26N 36°07' E 015°14'1112.8
2015-Apr-24 02:33N 36°16' E 015°23'1413.2
2015-Apr-24 01:30N 36°27' E 015°33'1313.0
2015-Apr-24 00:32N 36°37' E 015°42'6513.0
2015-Apr-23 19:33N 37°31' E 016°29'1212.3
2015-Apr-23 18:33N 37°40' E 016°38'2412.1
2015-Apr-23 16:32N 38°01' E 016°55'8912.6
2015-Apr-23 09:27N 39°13' E 018°01'  

Dump ship's entire track history